sensor_id;sensor_type;location;lat;lon;timestamp;pressure;altitude;pressure_sealevel;temperature;humidity
65534;BME280;53640;55.838;37.184;2023-04-08T00:00:33;100091.47;;;2.48;34.49
65534;BME280;53640;55.838;37.184;2023-04-08T00:03:00;100083.91;;;2.44;34.37
65534;BME280;53640;55.838;37.184;2023-04-08T00:05:27;100130.59;;;2.77;34.52
65534;BME280;53640;55.838;37.184;2023-04-08T00:07:54;100172.00;;;3.00;34.69
65534;BME280;53640;55.838;37.184;2023-04-08T00:10:20;100194.03;;;3.12;35.19
65534;BME280;53640;55.838;37.184;2023-04-08T00:12:48;100118.16;;;2.68;35.05
65534;BME280;53640;55.838;37.184;2023-04-08T00:15:15;100094.28;;;2.57;35.03
65534;BME280;53640;55.838;37.184;2023-04-08T00:17:42;100255.25;;;3.52;35.07
65534;BME280;53640;55.838;37.184;2023-04-08T00:20:08;100153.47;;;2.89;35.26
65534;BME280;53640;55.838;37.184;2023-04-08T00:22:38;100155.75;;;2.84;34.97
65534;BME280;53640;55.838;37.184;2023-04-08T00:25:05;100253.03;;;3.48;34.91
65534;BME280;53640;55.838;37.184;2023-04-08T00:27:32;100215.09;;;3.25;35.13
65534;BME280;53640;55.838;37.184;2023-04-08T00:29:59;100110.88;;;2.60;35.36
65534;BME280;53640;55.838;37.184;2023-04-08T00:32:30;100128.38;;;2.72;35.52
65534;BME280;53640;55.838;37.184;2023-04-08T00:34:57;100107.22;;;2.51;35.68
65534;BME280;53640;55.838;37.184;2023-04-08T00:37:24;100240.22;;;3.42;35.52
65534;BME280;53640;55.838;37.184;2023-04-08T00:39:50;100123.22;;;2.61;35.52
65534;BME280;53640;55.838;37.184;2023-04-08T00:42:19;100077.47;;;2.37;35.03
65534;BME280;53640;55.838;37.184;2023-04-08T00:44:47;100249.13;;;3.33;35.10
65534;BME280;53640;55.838;37.184;2023-04-08T00:47:16;100128.06;;;2.48;35.20
65534;BME280;53640;55.838;37.184;2023-04-08T00:49:43;100264.81;;;3.27;35.62
65534;BME280;53640;55.838;37.184;2023-04-08T00:52:10;100220.69;;;3.04;35.76
65534;BME280;53640;55.838;37.184;2023-04-08T00:54:37;100207.75;;;2.99;35.76
65534;BME280;53640;55.838;37.184;2023-04-08T00:57:09;100237.53;;;3.14;35.72
65534;BME280;53640;55.838;37.184;2023-04-08T00:59:36;100251.72;;;3.24;36.17
65534;BME280;53640;55.838;37.184;2023-04-08T01:02:13;100220.97;;;3.01;36.02
65534;BME280;53640;55.838;37.184;2023-04-08T01:05:06;100249.78;;;3.17;35.72
65534;BME280;53640;55.838;37.184;2023-04-08T01:07:36;100214.97;;;2.89;36.17
65534;BME280;53640;55.838;37.184;2023-04-08T01:10:12;100171.28;;;2.71;35.91
65534;BME280;53640;55.838;37.184;2023-04-08T01:12:48;100194.31;;;2.82;36.41
65534;BME280;53640;55.838;37.184;2023-04-08T01:15:15;100216.91;;;2.97;36.18
65534;BME280;53640;55.838;37.184;2023-04-08T01:17:43;100237.81;;;3.11;36.29
65534;BME280;53640;55.838;37.184;2023-04-08T01:20:14;100199.38;;;2.85;36.51
65534;BME280;53640;55.838;37.184;2023-04-08T01:25:28;100187.03;;;2.74;36.33
65534;BME280;53640;55.838;37.184;2023-04-08T01:27:58;100201.50;;;2.81;36.53
65534;BME280;53640;55.838;37.184;2023-04-08T01:30:26;100143.13;;;2.39;36.28
65534;BME280;53640;55.838;37.184;2023-04-08T01:32:57;100176.28;;;2.56;36.27
65534;BME280;53640;55.838;37.184;2023-04-08T01:35:25;100218.53;;;2.80;36.07
65534;BME280;53640;55.838;37.184;2023-04-08T01:37:53;100163.09;;;2.45;36.33
65534;BME280;53640;55.838;37.184;2023-04-08T01:40:22;100165.50;;;2.38;36.64
65534;BME280;53640;55.838;37.184;2023-04-08T01:42:49;100074.72;;;1.81;36.68
65534;BME280;53640;55.838;37.184;2023-04-08T01:45:18;100204.25;;;2.62;36.70
65534;BME280;53640;55.838;37.184;2023-04-08T01:47:45;100227.28;;;2.72;36.57
65534;BME280;53640;55.838;37.184;2023-04-08T01:50:15;100247.78;;;2.82;36.90
65534;BME280;53640;55.838;37.184;2023-04-08T01:52:47;100197.97;;;2.53;36.97
65534;BME280;53640;55.838;37.184;2023-04-08T01:55:15;100183.78;;;2.43;37.08
65534;BME280;53640;55.838;37.184;2023-04-08T01:57:47;100227.88;;;2.66;37.19
65534;BME280;53640;55.838;37.184;2023-04-08T02:00:15;100253.75;;;2.75;37.25
65534;BME280;53640;55.838;37.184;2023-04-08T02:02:46;100122.75;;;1.81;37.08
65534;BME280;53640;55.838;37.184;2023-04-08T02:05:14;100156.31;;;1.94;37.04
65534;BME280;53640;55.838;37.184;2023-04-08T02:07:41;100181.31;;;2.12;36.83
65534;BME280;53640;55.838;37.184;2023-04-08T02:10:07;100154.47;;;1.94;36.87
65534;BME280;53640;55.838;37.184;2023-04-08T02:12:38;100191.31;;;2.00;37.11
65534;BME280;53640;55.838;37.184;2023-04-08T02:15:10;100109.72;;;1.40;37.22
65534;BME280;53640;55.838;37.184;2023-04-08T02:17:46;100125.72;;;1.49;37.37
65534;BME280;53640;55.838;37.184;2023-04-08T02:20:18;100217.84;;;2.02;37.15
65534;BME280;53640;55.838;37.184;2023-04-08T02:25:35;100190.31;;;1.82;37.62
65534;BME280;53640;55.838;37.184;2023-04-08T02:28:10;100167.56;;;1.68;37.48
65534;BME280;53640;55.838;37.184;2023-04-08T02:30:50;100202.97;;;1.90;37.66
65534;BME280;53640;55.838;37.184;2023-04-08T02:33:42;100238.66;;;1.98;37.78
65534;BME280;53640;55.838;37.184;2023-04-08T02:36:12;100167.28;;;1.52;37.79
65534;BME280;53640;55.838;37.184;2023-04-08T02:38:40;100106.88;;;1.12;37.92
65534;BME280;53640;55.838;37.184;2023-04-08T02:41:09;100115.59;;;1.14;38.12
65534;BME280;53640;55.838;37.184;2023-04-08T02:43:44;100111.38;;;1.12;38.39
65534;BME280;53640;55.838;37.184;2023-04-08T02:46:16;100167.41;;;1.41;38.21
65534;BME280;53640;55.838;37.184;2023-04-08T02:48:43;100154.19;;;1.29;38.42
65534;BME280;53640;55.838;37.184;2023-04-08T02:51:24;100221.78;;;1.69;38.26
65534;BME280;53640;55.838;37.184;2023-04-08T02:53:54;100191.28;;;1.52;38.43
65534;BME280;53640;55.838;37.184;2023-04-08T02:56:34;100160.38;;;1.30;38.86
65534;BME280;53640;55.838;37.184;2023-04-08T02:59:05;100160.22;;;1.31;38.43
65534;BME280;53640;55.838;37.184;2023-04-08T03:01:43;100233.84;;;1.73;38.54
65534;BME280;53640;55.838;37.184;2023-04-08T03:04:17;100088.91;;;0.95;38.78
65534;BME280;53640;55.838;37.184;2023-04-08T03:06:46;100161.63;;;1.36;38.69
65534;BME280;53640;55.838;37.184;2023-04-08T03:09:21;100269.28;;;1.94;38.67
65534;BME280;53640;55.838;37.184;2023-04-08T03:11:50;100114.72;;;1.04;38.79
65534;BME280;53640;55.838;37.184;2023-04-08T03:14:24;100225.41;;;1.58;38.70
65534;BME280;53640;55.838;37.184;2023-04-08T03:16:53;100117.22;;;0.96;38.65
65534;BME280;53640;55.838;37.184;2023-04-08T03:19:27;100122.56;;;0.96;38.76
65534;BME280;53640;55.838;37.184;2023-04-08T03:21:59;100114.72;;;0.94;39.13
65534;BME280;53640;55.838;37.184;2023-04-08T03:24:30;100104.00;;;0.84;39.08
65534;BME280;53640;55.838;37.184;2023-04-08T03:27:02;100195.66;;;1.43;39.13
65534;BME280;53640;55.838;37.184;2023-04-08T03:29:40;100138.88;;;1.02;39.09
65534;BME280;53640;55.838;37.184;2023-04-08T03:32:07;100231.88;;;1.65;39.04
65534;BME280;53640;55.838;37.184;2023-04-08T03:34:36;100157.69;;;1.20;39.02
65534;BME280;53640;55.838;37.184;2023-04-08T03:37:03;100148.84;;;1.20;39.05
65534;BME280;53640;55.838;37.184;2023-04-08T03:39:32;100180.47;;;1.44;39.27
65534;BME280;53640;55.838;37.184;2023-04-08T03:42:04;100234.16;;;1.79;39.36
65534;BME280;53640;55.838;37.184;2023-04-08T03:44:33;100102.22;;;1.04;38.96
65534;BME280;53640;55.838;37.184;2023-04-08T03:47:12;100177.69;;;1.55;39.17
65534;BME280;53640;55.838;37.184;2023-04-08T03:49:44;100176.69;;;1.56;39.15
65534;BME280;53640;55.838;37.184;2023-04-08T03:52:13;100195.38;;;1.66;39.15
65534;BME280;53640;55.838;37.184;2023-04-08T03:54:42;100283.06;;;2.28;38.94
65534;BME280;53640;55.838;37.184;2023-04-08T03:57:09;100165.88;;;1.57;38.95
65534;BME280;53640;55.838;37.184;2023-04-08T03:59:52;100099.72;;;1.22;38.86
65534;BME280;53640;55.838;37.184;2023-04-08T04:02:38;100260.28;;;2.24;38.52
65534;BME280;53640;55.838;37.184;2023-04-08T04:05:25;100141.44;;;1.52;38.59
65534;BME280;53640;55.838;37.184;2023-04-08T04:07:52;100122.19;;;1.49;38.42
65534;BME280;53640;55.838;37.184;2023-04-08T04:10:26;100125.72;;;1.49;38.70
65534;BME280;53640;55.838;37.184;2023-04-08T04:13:02;100216.88;;;2.13;38.54
65534;BME280;53640;55.838;37.184;2023-04-08T04:15:29;100208.28;;;2.09;38.40
65534;BME280;53640;55.838;37.184;2023-04-08T04:18:06;100152.38;;;1.69;38.36
65534;BME280;53640;55.838;37.184;2023-04-08T04:20:33;100187.06;;;1.98;38.60
65534;BME280;53640;55.838;37.184;2023-04-08T04:23:05;100186.94;;;1.99;38.35
65534;BME280;53640;55.838;37.184;2023-04-08T04:25:49;100132.31;;;1.65;38.41
65534;BME280;53640;55.838;37.184;2023-04-08T04:28:42;100225.44;;;2.16;38.78
65534;BME280;53640;55.838;37.184;2023-04-08T04:31:26;100129.50;;;1.56;38.84
65534;BME280;53640;55.838;37.184;2023-04-08T04:34:30;100219.53;;;2.13;38.72
65534;BME280;53640;55.838;37.184;2023-04-08T04:37:08;100151.81;;;1.65;39.06
65534;BME280;53640;55.838;37.184;2023-04-08T04:39:40;100232.63;;;2.16;38.88
65534;BME280;53640;55.838;37.184;2023-04-08T04:42:58;100279.97;;;2.43;38.87
65534;BME280;53640;55.838;37.184;2023-04-08T04:45:25;100261.25;;;2.33;38.92
65534;BME280;53640;55.838;37.184;2023-04-08T04:47:51;100232.72;;;2.14;39.25
65534;BME280;53640;55.838;37.184;2023-04-08T04:50:18;100301.59;;;2.59;39.34
65534;BME280;53640;55.838;37.184;2023-04-08T04:52:46;100242.44;;;2.25;39.42
65534;BME280;53640;55.838;37.184;2023-04-08T04:55:13;100255.19;;;2.41;38.92
65534;BME280;53640;55.838;37.184;2023-04-08T04:57:41;100305.22;;;2.77;39.46
65534;BME280;53640;55.838;37.184;2023-04-08T05:00:07;100249.00;;;2.50;39.85
65534;BME280;53640;55.838;37.184;2023-04-08T05:02:34;100229.31;;;2.51;39.71
65534;BME280;53640;55.838;37.184;2023-04-08T05:05:01;100280.16;;;2.88;39.29
65534;BME280;53640;55.838;37.184;2023-04-08T05:07:29;100264.25;;;2.87;39.16
65534;BME280;53640;55.838;37.184;2023-04-08T05:09:57;100219.13;;;2.74;38.66
65534;BME280;53640;55.838;37.184;2023-04-08T05:12:31;100198.34;;;2.68;38.64
65534;BME280;53640;55.838;37.184;2023-04-08T05:14:58;100267.34;;;3.19;38.41
65534;BME280;53640;55.838;37.184;2023-04-08T05:17:27;100184.19;;;2.85;38.19
65534;BME280;53640;55.838;37.184;2023-04-08T05:19:54;100273.84;;;3.54;37.74
65534;BME280;53640;55.838;37.184;2023-04-08T05:22:21;100280.38;;;3.69;37.42
65534;BME280;53640;55.838;37.184;2023-04-08T05:24:48;100269.22;;;3.74;37.16
65534;BME280;53640;55.838;37.184;2023-04-08T05:27:15;100276.66;;;3.98;37.06
65534;BME280;53640;55.838;37.184;2023-04-08T05:29:41;100301.69;;;4.24;37.12
65534;BME280;53640;55.838;37.184;2023-04-08T05:32:09;100287.69;;;4.31;36.83
65534;BME280;53640;55.838;37.184;2023-04-08T05:34:35;100320.78;;;4.65;36.33
65534;BME280;53640;55.838;37.184;2023-04-08T05:37:03;100306.72;;;4.63;35.90
65534;BME280;53640;55.838;37.184;2023-04-08T05:39:30;100266.75;;;4.52;35.33
65534;BME280;53640;55.838;37.184;2023-04-08T05:42:36;100225.56;;;4.35;35.36
65534;BME280;53640;55.838;37.184;2023-04-08T05:45:48;100260.91;;;4.83;34.79
65534;BME280;53640;55.838;37.184;2023-04-08T05:48:32;100293.75;;;5.11;34.70
65534;BME280;53640;55.838;37.184;2023-04-08T05:52:14;100237.44;;;4.85;34.38
65534;BME280;53640;55.838;37.184;2023-04-08T05:55:32;100277.09;;;5.25;34.42
65534;BME280;53640;55.838;37.184;2023-04-08T06:02:33;100203.88;;;5.15;33.39
65534;BME280;53640;55.838;37.184;2023-04-08T06:05:00;100300.50;;;5.91;33.45
65534;BME280;53640;55.838;37.184;2023-04-08T06:07:29;100207.41;;;5.50;32.98
65534;BME280;53640;55.838;37.184;2023-04-08T06:10:02;100203.91;;;5.57;32.94
65534;BME280;53640;55.838;37.184;2023-04-08T06:12:36;100175.19;;;5.58;32.78
65534;BME280;53640;55.838;37.184;2023-04-08T06:15:09;100279.91;;;6.41;32.43
65534;BME280;53640;55.838;37.184;2023-04-08T06:17:40;100228.63;;;6.34;32.27
65534;BME280;53640;55.838;37.184;2023-04-08T06:20:20;100198.88;;;6.44;31.61
65534;BME280;53640;55.838;37.184;2023-04-08T06:23:22;100208.41;;;6.71;31.75
65534;BME280;53640;55.838;37.184;2023-04-08T06:26:47;100268.66;;;7.34;31.64
65534;BME280;53640;55.838;37.184;2023-04-08T06:29:46;100176.44;;;6.84;31.18
65534;BME280;53640;55.838;37.184;2023-04-08T06:32:35;100241.53;;;7.35;30.64
65534;BME280;53640;55.838;37.184;2023-04-08T06:35:04;100310.66;;;7.91;30.49
65534;BME280;53640;55.838;37.184;2023-04-08T06:37:32;100302.03;;;7.95;29.99
65534;BME280;53640;55.838;37.184;2023-04-08T06:40:05;100282.50;;;7.93;30.23
65534;BME280;53640;55.838;37.184;2023-04-08T06:42:41;100295.88;;;8.09;30.30
65534;BME280;53640;55.838;37.184;2023-04-08T06:46:01;100280.00;;;8.15;29.71
65534;BME280;53640;55.838;37.184;2023-04-08T06:48:34;100258.06;;;8.18;29.48
65534;BME280;53640;55.838;37.184;2023-04-08T06:51:02;100319.13;;;8.79;29.56
65534;BME280;53640;55.838;37.184;2023-04-08T06:53:40;100220.88;;;8.36;28.93
65534;BME280;53640;55.838;37.184;2023-04-08T06:56:08;100276.03;;;8.86;28.48
65534;BME280;53640;55.838;37.184;2023-04-08T06:59:07;100302.53;;;9.20;28.69
65534;BME280;53640;55.838;37.184;2023-04-08T07:01:41;100237.69;;;9.05;28.24
65534;BME280;53640;55.838;37.184;2023-04-08T07:04:19;100258.63;;;9.48;27.91
65534;BME280;53640;55.838;37.184;2023-04-08T07:06:46;100289.53;;;9.90;27.47
65534;BME280;53640;55.838;37.184;2023-04-08T07:09:15;100213.59;;;9.70;27.03
65534;BME280;53640;55.838;37.184;2023-04-08T07:11:45;100217.72;;;9.87;27.12
65534;BME280;53640;55.838;37.184;2023-04-08T07:14:16;100256.94;;;10.19;27.06
65534;BME280;53640;55.838;37.184;2023-04-08T07:17:03;100177.16;;;9.87;26.39
65534;BME280;53640;55.838;37.184;2023-04-08T07:20:12;100193.44;;;10.15;26.05
65534;BME280;53640;55.838;37.184;2023-04-08T07:23:54;100321.28;;;10.82;25.85
65534;BME280;53640;55.838;37.184;2023-04-08T07:27:10;100317.28;;;10.77;25.81
65534;BME280;53640;55.838;37.184;2023-04-08T07:30:24;100181.47;;;10.03;25.72
65534;BME280;53640;55.838;37.184;2023-04-08T07:33:50;100237.50;;;10.30;25.38
65534;BME280;53640;55.838;37.184;2023-04-08T07:36:43;100229.72;;;10.42;25.64
65534;BME280;53640;55.838;37.184;2023-04-08T07:39:54;100246.28;;;10.61;26.04
65534;BME280;53640;55.838;37.184;2023-04-08T07:42:22;100285.19;;;11.02;25.46
65534;BME280;53640;55.838;37.184;2023-04-08T07:44:52;100217.16;;;10.63;25.34
65534;BME280;53640;55.838;37.184;2023-04-08T07:47:18;100241.94;;;10.88;25.01
65534;BME280;53640;55.838;37.184;2023-04-08T07:49:45;100172.28;;;10.47;24.48
65534;BME280;53640;55.838;37.184;2023-04-08T07:52:14;100235.94;;;10.92;24.23
65534;BME280;53640;55.838;37.184;2023-04-08T07:54:41;100293.78;;;11.47;24.64
65534;BME280;53640;55.838;37.184;2023-04-08T07:57:07;100260.19;;;11.42;24.08
65534;BME280;53640;55.838;37.184;2023-04-08T07:59:34;100262.53;;;11.51;24.23
65534;BME280;53640;55.838;37.184;2023-04-08T08:02:03;100234.16;;;11.47;24.04
65534;BME280;53640;55.838;37.184;2023-04-08T08:04:30;100259.03;;;11.64;23.96
65534;BME280;53640;55.838;37.184;2023-04-08T08:06:59;100209.03;;;11.32;24.13
65534;BME280;53640;55.838;37.184;2023-04-08T08:09:26;100272.50;;;11.86;23.62
65534;BME280;53640;55.838;37.184;2023-04-08T08:11:52;100258.72;;;11.94;23.42
65534;BME280;53640;55.838;37.184;2023-04-08T08:14:19;100286.13;;;12.26;23.61
65534;BME280;53640;55.838;37.184;2023-04-08T08:16:45;100286.59;;;12.42;23.33
65534;BME280;53640;55.838;37.184;2023-04-08T08:19:12;100314.66;;;12.76;22.84
65534;BME280;53640;55.838;37.184;2023-04-08T08:21:39;100281.81;;;12.78;23.08
65534;BME280;53640;55.838;37.184;2023-04-08T08:24:06;100293.53;;;12.91;21.92
65534;BME280;53640;55.838;37.184;2023-04-08T08:26:35;100237.50;;;12.70;22.13
65534;BME280;53640;55.838;37.184;2023-04-08T08:29:02;100266.91;;;13.20;22.50
65534;BME280;53640;55.838;37.184;2023-04-08T08:31:29;100307.44;;;13.55;21.86
65534;BME280;53640;55.838;37.184;2023-04-08T08:33:55;100280.38;;;13.66;21.58
65534;BME280;53640;55.838;37.184;2023-04-08T08:36:21;100266.28;;;13.89;21.53
65534;BME280;53640;55.838;37.184;2023-04-08T08:38:48;100301.41;;;14.29;21.08
65534;BME280;53640;55.838;37.184;2023-04-08T08:41:14;100250.56;;;14.23;20.71
65534;BME280;53640;55.838;37.184;2023-04-08T08:43:41;100277.31;;;14.64;20.87
65534;BME280;53640;55.838;37.184;2023-04-08T08:46:09;100265.56;;;14.89;20.29
65534;BME280;53640;55.838;37.184;2023-04-08T08:48:37;100279.38;;;14.94;19.90
65534;BME280;53640;55.838;37.184;2023-04-08T08:51:12;100265.50;;;14.96;20.43
65534;BME280;53640;55.838;37.184;2023-04-08T08:53:45;100227.16;;;14.72;20.06
65534;BME280;53640;55.838;37.184;2023-04-08T08:56:12;100224.50;;;14.59;19.87
65534;BME280;53640;55.838;37.184;2023-04-08T08:58:52;100154.69;;;14.39;19.63
65534;BME280;53640;55.838;37.184;2023-04-08T09:01:37;100293.09;;;15.49;18.86
65534;BME280;53640;55.838;37.184;2023-04-08T09:04:14;100232.56;;;15.16;19.06
65534;BME280;53640;55.838;37.184;2023-04-08T09:06:43;100163.13;;;15.00;18.76
65534;BME280;53640;55.838;37.184;2023-04-08T09:09:12;100191.44;;;15.54;18.97
65534;BME280;53640;55.838;37.184;2023-04-08T09:11:45;100170.94;;;15.63;18.70
65534;BME280;53640;55.838;37.184;2023-04-08T09:14:21;100207.94;;;16.31;17.77
65534;BME280;53640;55.838;37.184;2023-04-08T09:16:52;100200.38;;;16.33;17.93
65534;BME280;53640;55.838;37.184;2023-04-08T09:19:19;100209.91;;;16.66;17.46
65534;BME280;53640;55.838;37.184;2023-04-08T09:22:13;100139.31;;;16.63;17.52
65534;BME280;53640;55.838;37.184;2023-04-08T09:25:17;100278.81;;;17.73;16.43
65534;BME280;53640;55.838;37.184;2023-04-08T09:27:47;100237.19;;;17.48;16.64
65534;BME280;53640;55.838;37.184;2023-04-08T09:30:15;100176.47;;;16.99;17.12
65534;BME280;53640;55.838;37.184;2023-04-08T09:32:54;100277.53;;;17.64;17.09
65534;BME280;53640;55.838;37.184;2023-04-08T09:35:47;100275.09;;;17.79;16.40
65534;BME280;53640;55.838;37.184;2023-04-08T09:38:16;100176.34;;;17.58;17.27
65534;BME280;53640;55.838;37.184;2023-04-08T09:40:59;100203.69;;;17.98;16.63
65534;BME280;53640;55.838;37.184;2023-04-08T09:43:49;100268.50;;;18.66;16.31
65534;BME280;53640;55.838;37.184;2023-04-08T09:50:04;100140.94;;;17.96;15.61
65534;BME280;53640;55.838;37.184;2023-04-08T09:53:12;100197.28;;;18.21;16.14
65534;BME280;53640;55.838;37.184;2023-04-08T09:56:37;100189.69;;;18.28;15.99
65534;BME280;53640;55.838;37.184;2023-04-08T09:59:46;100126.16;;;18.31;16.09
65534;BME280;53640;55.838;37.184;2023-04-08T10:06:02;100186.94;;;19.17;15.86
65534;BME280;53640;55.838;37.184;2023-04-08T10:09:03;100134.00;;;19.22;15.35
65534;BME280;53640;55.838;37.184;2023-04-08T10:12:24;100165.50;;;19.58;15.15
65534;BME280;53640;55.838;37.184;2023-04-08T10:15:32;100259.28;;;20.43;14.83
65534;BME280;53640;55.838;37.184;2023-04-08T10:22:05;100188.50;;;20.71;14.62
65534;BME280;53640;55.838;37.184;2023-04-08T10:25:43;100120.97;;;20.10;14.60
65534;BME280;53640;55.838;37.184;2023-04-08T10:32:39;100195.84;;;20.60;14.99
65534;BME280;53640;55.838;37.184;2023-04-08T10:35:55;100246.44;;;20.91;15.16
65534;BME280;53640;55.838;37.184;2023-04-08T10:38:38;100126.47;;;20.15;14.82
65534;BME280;53640;55.838;37.184;2023-04-08T10:41:58;100170.13;;;20.39;15.32
65534;BME280;53640;55.838;37.184;2023-04-08T10:44:46;100194.00;;;20.71;15.13
65534;BME280;53640;55.838;37.184;2023-04-08T10:47:25;100152.31;;;20.47;14.56
65534;BME280;53640;55.838;37.184;2023-04-08T10:50:21;100103.22;;;20.28;14.88
65534;BME280;53640;55.838;37.184;2023-04-08T10:53:02;100149.88;;;20.50;14.66
65534;BME280;53640;55.838;37.184;2023-04-08T10:59:29;100140.50;;;20.94;14.43
65534;BME280;53640;55.838;37.184;2023-04-08T11:02:12;100108.88;;;21.06;14.39
65534;BME280;53640;55.838;37.184;2023-04-08T11:05:11;100137.59;;;21.21;13.81
65534;BME280;53640;55.838;37.184;2023-04-08T11:08:30;100162.41;;;21.31;13.14
65534;BME280;53640;55.838;37.184;2023-04-08T11:11:08;100161.88;;;21.39;14.05
65534;BME280;53640;55.838;37.184;2023-04-08T11:14:13;100174.53;;;21.30;13.79
65534;BME280;53640;55.838;37.184;2023-04-08T11:16:42;100114.22;;;20.71;14.03
65534;BME280;53640;55.838;37.184;2023-04-08T11:19:09;100127.97;;;20.71;14.60
65534;BME280;53640;55.838;37.184;2023-04-08T11:21:36;100137.19;;;20.49;14.46
65534;BME280;53640;55.838;37.184;2023-04-08T11:24:10;100151.81;;;20.55;14.73
65534;BME280;53640;55.838;37.184;2023-04-08T11:26:43;100126.69;;;20.46;14.34
65534;BME280;53640;55.838;37.184;2023-04-08T11:29:10;100105.34;;;20.58;14.06
65534;BME280;53640;55.838;37.184;2023-04-08T11:31:40;100168.94;;;21.09;13.63
65534;BME280;53640;55.838;37.184;2023-04-08T11:34:07;100122.56;;;20.86;14.23
65534;BME280;53640;55.838;37.184;2023-04-08T11:36:33;100102.19;;;20.82;14.52
65534;BME280;53640;55.838;37.184;2023-04-08T11:39:06;100111.63;;;20.96;14.39
65534;BME280;53640;55.838;37.184;2023-04-08T11:41:38;100125.94;;;20.98;13.83
65534;BME280;53640;55.838;37.184;2023-04-08T11:44:05;100143.38;;;21.24;13.85
65534;BME280;53640;55.838;37.184;2023-04-08T11:46:33;100169.28;;;21.23;13.87
65534;BME280;53640;55.838;37.184;2023-04-08T11:49:04;100200.44;;;21.34;14.27
65534;BME280;53640;55.838;37.184;2023-04-08T11:51:52;100180.28;;;21.23;14.62
65534;BME280;53640;55.838;37.184;2023-04-08T11:54:41;100078.13;;;20.62;13.89
65534;BME280;53640;55.838;37.184;2023-04-08T11:57:29;100121.47;;;20.87;14.34
65534;BME280;53640;55.838;37.184;2023-04-08T11:59:59;100139.16;;;21.06;13.88
65534;BME280;53640;55.838;37.184;2023-04-08T12:02:25;100065.31;;;20.83;14.14
65534;BME280;53640;55.838;37.184;2023-04-08T12:04:52;100096.31;;;21.26;13.98
65534;BME280;53640;55.838;37.184;2023-04-08T12:07:18;100105.75;;;21.55;13.92
65534;BME280;53640;55.838;37.184;2023-04-08T12:09:48;100106.88;;;21.64;13.98
65534;BME280;53640;55.838;37.184;2023-04-08T12:12:14;100064.72;;;21.54;13.04
65534;BME280;53640;55.838;37.184;2023-04-08T12:14:44;100106.91;;;21.75;13.63
65534;BME280;53640;55.838;37.184;2023-04-08T12:17:11;100101.94;;;21.77;13.31
65534;BME280;53640;55.838;37.184;2023-04-08T12:19:40;100092.84;;;21.71;13.74
65534;BME280;53640;55.838;37.184;2023-04-08T12:22:07;100111.28;;;21.60;13.50
65534;BME280;53640;55.838;37.184;2023-04-08T12:24:34;100074.84;;;21.33;13.81
65534;BME280;53640;55.838;37.184;2023-04-08T12:27:07;100074.56;;;21.39;13.77
65534;BME280;53640;55.838;37.184;2023-04-08T12:29:33;100091.72;;;21.57;13.71
65534;BME280;53640;55.838;37.184;2023-04-08T12:32:00;100085.13;;;21.68;13.74
65534;BME280;53640;55.838;37.184;2023-04-08T12:34:27;100034.94;;;21.51;13.50
65534;BME280;53640;55.838;37.184;2023-04-08T12:36:56;100083.19;;;21.69;13.39
65534;BME280;53640;55.838;37.184;2023-04-08T12:39:28;100129.50;;;22.07;13.53
65534;BME280;53640;55.838;37.184;2023-04-08T12:41:58;100067.75;;;21.62;13.87
65534;BME280;53640;55.838;37.184;2023-04-08T12:44:24;100079.88;;;21.61;13.97
65534;BME280;53640;55.838;37.184;2023-04-08T12:47:15;100069.63;;;21.42;14.00
65534;BME280;53640;55.838;37.184;2023-04-08T12:50:10;100075.94;;;21.27;14.42
65534;BME280;53640;55.838;37.184;2023-04-08T12:52:37;100012.09;;;20.62;14.48
65534;BME280;53640;55.838;37.184;2023-04-08T12:55:04;100012.19;;;20.25;14.83
65534;BME280;53640;55.838;37.184;2023-04-08T12:57:31;100054.19;;;20.15;14.90
65534;BME280;53640;55.838;37.184;2023-04-08T12:59:57;100065.84;;;19.95;15.33
65534;BME280;53640;55.838;37.184;2023-04-08T13:02:23;100100.03;;;20.09;15.34
65534;BME280;53640;55.838;37.184;2023-04-08T13:04:53;100061.25;;;19.74;15.65
65534;BME280;53640;55.838;37.184;2023-04-08T13:07:20;100027.44;;;19.68;15.40
65534;BME280;53640;55.838;37.184;2023-04-08T13:09:46;100103.22;;;20.28;15.17
65534;BME280;53640;55.838;37.184;2023-04-08T13:12:13;100117.25;;;20.69;15.57
65534;BME280;53640;55.838;37.184;2023-04-08T13:14:39;100090.69;;;20.95;14.80
65534;BME280;53640;55.838;37.184;2023-04-08T13:17:06;100093.09;;;21.49;14.58
65534;BME280;53640;55.838;37.184;2023-04-08T13:19:32;100119.84;;;21.84;14.47
65534;BME280;53640;55.838;37.184;2023-04-08T13:22:00;100021.69;;;21.27;14.27
65534;BME280;53640;55.838;37.184;2023-04-08T13:24:29;100051.50;;;21.61;14.55
65534;BME280;53640;55.838;37.184;2023-04-08T13:26:55;100042.94;;;21.57;13.91
65534;BME280;53640;55.838;37.184;2023-04-08T13:29:22;100029.19;;;21.73;13.95
65534;BME280;53640;55.838;37.184;2023-04-08T13:31:51;100059.22;;;21.84;14.16
65534;BME280;53640;55.838;37.184;2023-04-08T13:34:18;100060.59;;;21.92;13.75
65534;BME280;53640;55.838;37.184;2023-04-08T13:36:48;100089.28;;;22.17;14.00
65534;BME280;53640;55.838;37.184;2023-04-08T13:39:14;99972.66;;;21.39;14.53
65534;BME280;53640;55.838;37.184;2023-04-08T13:41:41;99970.72;;;21.25;14.20
65534;BME280;53640;55.838;37.184;2023-04-08T13:44:07;100009.84;;;21.27;14.29
65534;BME280;53640;55.838;37.184;2023-04-08T13:46:34;100108.84;;;21.74;14.34
65534;BME280;53640;55.838;37.184;2023-04-08T13:49:06;100036.16;;;20.82;14.52
65534;BME280;53640;55.838;37.184;2023-04-08T13:51:36;100054.63;;;20.39;14.94
65534;BME280;53640;55.838;37.184;2023-04-08T13:54:05;100092.94;;;20.13;15.43
65534;BME280;53640;55.838;37.184;2023-04-08T13:56:32;99998.44;;;18.96;15.67